createdAt,value
2023-05-10T00:00:42.240Z,25.00
2023-05-10T00:01:42.269Z,25.00
2023-05-10T00:02:42.310Z,25.00
2023-05-10T00:03:42.331Z,25.00
2023-05-10T00:04:42.213Z,10.87
2023-05-10T00:05:42.214Z,0.00
2023-05-10T00:06:42.210Z,0.00
2023-05-10T00:07:42.202Z,0.00
2023-05-10T00:08:42.201Z,0.00
2023-05-10T00:09:42.201Z,10.39
2023-05-10T00:10:42.204Z,21.02
2023-05-10T00:11:42.193Z,25.00
2023-05-10T00:12:42.246Z,25.16
2023-05-10T00:13:42.189Z,25.00
2023-05-10T00:14:42.180Z,25.00
2023-05-10T00:15:42.172Z,25.58
2023-05-10T00:16:42.228Z,26.40
2023-05-10T00:17:42.184Z,25.31
2023-05-10T00:18:42.164Z,25.00
2023-05-10T00:19:42.148Z,26.06
2023-05-10T00:20:42.140Z,25.22
2023-05-10T00:21:42.136Z,25.00
2023-05-10T00:22:42.123Z,25.03
2023-05-10T00:23:42.137Z,28.06
2023-05-10T00:24:42.120Z,25.87
2023-05-10T00:25:42.111Z,26.07
2023-05-10T00:26:42.105Z,25.44
2023-05-10T00:27:42.106Z,25.42
2023-05-10T00:28:42.130Z,25.00
2023-05-10T00:29:42.092Z,25.79
2023-05-10T00:30:42.082Z,25.52
2023-05-10T00:31:42.099Z,25.00
2023-05-10T00:32:42.087Z,26.10
2023-05-10T00:33:42.060Z,26.56
2023-05-10T00:34:42.052Z,26.69
2023-05-10T00:35:42.045Z,27.17
2023-05-10T00:36:42.046Z,25.17
2023-05-10T00:37:42.032Z,28.12
2023-05-10T00:38:42.044Z,27.62
2023-05-10T00:39:42.024Z,25.74
2023-05-10T00:40:42.022Z,25.00
2023-05-10T00:41:42.013Z,25.88
2023-05-10T00:42:42.004Z,26.27
2023-05-10T00:43:42.007Z,25.00
2023-05-10T00:44:42.031Z,27.38
2023-05-10T00:45:42.010Z,26.29
2023-05-10T00:46:41.993Z,25.13
2023-05-10T00:47:42.036Z,25.56
2023-05-10T00:48:41.991Z,26.68
2023-05-10T00:49:41.987Z,25.01
2023-05-10T00:50:41.985Z,25.00
2023-05-10T00:51:41.979Z,27.70
2023-05-10T00:52:41.973Z,27.61
2023-05-10T00:53:41.976Z,27.19
2023-05-10T00:54:41.981Z,27.49
2023-05-10T00:55:42.000Z,26.23
2023-05-10T00:56:41.973Z,27.06
2023-05-10T00:57:41.971Z,26.92
2023-05-10T00:58:42.030Z,28.11
2023-05-10T00:59:41.946Z,27.24
2023-05-10T01:00:41.973Z,27.36
2023-05-10T01:01:41.987Z,25.77
2023-05-10T01:02:41.994Z,27.17
2023-05-10T01:03:41.968Z,26.27
2023-05-10T01:04:41.933Z,26.60
2023-05-10T01:05:41.907Z,28.71
2023-05-10T01:06:41.909Z,27.26
2023-05-10T01:07:41.899Z,28.08
2023-05-10T01:08:41.900Z,28.52
2023-05-10T01:09:41.889Z,26.22
2023-05-10T01:10:41.886Z,27.34
2023-05-10T01:11:41.879Z,27.97
2023-05-10T01:12:41.974Z,28.50
2023-05-10T01:13:41.864Z,27.71
2023-05-10T01:14:41.861Z,26.14
2023-05-10T01:15:41.921Z,26.21
2023-05-10T01:16:41.883Z,27.63
2023-05-10T01:17:41.842Z,27.80
2023-05-10T01:18:41.838Z,28.89
2023-05-10T01:19:41.835Z,28.94
2023-05-10T01:20:41.827Z,28.03
2023-05-10T01:21:41.817Z,27.38
2023-05-10T01:22:41.807Z,26.95
2023-05-10T01:23:41.799Z,28.72
2023-05-10T01:24:41.784Z,27.97
2023-05-10T01:25:41.770Z,27.57
2023-05-10T01:26:41.771Z,26.29
2023-05-10T01:27:41.754Z,26.76
2023-05-10T01:28:41.751Z,28.03
2023-05-10T01:29:41.745Z,27.26
2023-05-10T01:30:41.732Z,27.53
2023-05-10T01:31:41.757Z,27.52
2023-05-10T01:32:41.858Z,28.00
2023-05-10T01:33:41.713Z,27.85
2023-05-10T01:34:41.707Z,28.54
2023-05-10T01:35:41.703Z,27.86
2023-05-10T01:36:41.702Z,28.11
2023-05-10T01:37:41.694Z,27.02
2023-05-10T01:38:41.687Z,28.11
2023-05-10T01:39:41.731Z,26.57
2023-05-10T01:40:41.677Z,28.01
2023-05-10T01:41:41.668Z,29.21
2023-05-10T01:42:41.665Z,29.96
2023-05-10T01:43:41.662Z,28.47
2023-05-10T01:44:41.657Z,29.31
2023-05-10T01:45:41.656Z,27.44
2023-05-10T01:46:41.689Z,28.34
2023-05-10T01:47:41.662Z,27.35
2023-05-10T01:48:41.668Z,29.43
2023-05-10T01:49:41.638Z,27.63
2023-05-10T01:50:41.648Z,29.03
2023-05-10T01:51:41.659Z,28.46
2023-05-10T01:52:41.674Z,29.49
2023-05-10T01:53:41.713Z,27.64
2023-05-10T01:54:41.706Z,29.56
2023-05-10T01:55:41.727Z,26.29
2023-05-10T01:56:41.732Z,27.34
2023-05-10T01:57:41.804Z,26.74
2023-05-10T01:58:41.804Z,26.10
2023-05-10T01:59:41.999Z,26.69
2023-05-10T02:00:41.814Z,27.54
2023-05-10T02:01:41.812Z,29.19
2023-05-10T02:02:41.852Z,28.78
2023-05-10T02:03:41.856Z,28.00
2023-05-10T02:04:41.922Z,27.60
2023-05-10T02:05:41.873Z,27.79
2023-05-10T02:06:41.925Z,27.86
2023-05-10T02:07:41.910Z,29.14
2023-05-10T02:08:41.978Z,27.39
2023-05-10T02:09:41.946Z,27.73
2023-05-10T02:10:41.956Z,29.40
2023-05-10T02:11:42.000Z,27.63
2023-05-10T02:12:42.026Z,27.24
2023-05-10T02:13:42.004Z,25.87
2023-05-10T02:14:42.019Z,28.81
2023-05-10T02:15:42.030Z,28.19
2023-05-10T02:16:42.071Z,25.98
2023-05-10T02:17:42.091Z,27.14
2023-05-10T02:18:42.117Z,28.58
2023-05-10T02:19:42.167Z,26.61
2023-05-10T02:20:42.201Z,27.92
2023-05-10T02:21:42.198Z,28.94
2023-05-10T02:22:42.213Z,29.96
2023-05-10T02:23:42.244Z,26.83
2023-05-10T02:24:42.268Z,28.03
2023-05-10T02:25:42.283Z,28.89
2023-05-10T02:26:42.308Z,27.51
2023-05-10T02:27:42.313Z,26.85
2023-05-10T02:28:42.327Z,26.92
2023-05-10T02:29:42.363Z,29.50
2023-05-10T02:30:42.371Z,27.28
2023-05-10T02:31:42.395Z,25.65
2023-05-10T02:32:42.450Z,28.21
2023-05-10T02:33:42.434Z,29.49
2023-05-10T02:34:42.430Z,26.53
2023-05-10T02:35:42.442Z,26.51
2023-05-10T02:36:42.489Z,29.54
2023-05-10T02:37:43.014Z,26.88
2023-05-10T02:38:42.500Z,27.98
2023-05-10T02:39:42.511Z,25.00
2023-05-10T02:40:42.535Z,28.90
2023-05-10T02:41:42.543Z,28.54
2023-05-10T02:42:42.568Z,29.83
2023-05-10T02:43:42.581Z,29.36
2023-05-10T02:44:42.597Z,27.56
2023-05-10T02:45:42.683Z,30.56
2023-05-10T02:46:42.680Z,30.38
2023-05-10T02:47:42.806Z,29.89
2023-05-10T02:48:42.769Z,29.75
2023-05-10T02:49:42.790Z,28.70
2023-05-10T02:50:42.836Z,28.90
2023-05-10T02:51:42.870Z,28.85
2023-05-10T02:52:42.922Z,28.54
2023-05-10T02:53:42.943Z,29.98
2023-05-10T02:54:42.937Z,30.16
2023-05-10T02:55:42.975Z,30.11
2023-05-10T02:56:43.004Z,30.39
2023-05-10T02:57:43.031Z,30.99
2023-05-10T02:58:43.031Z,31.50
2023-05-10T02:59:43.046Z,30.18
2023-05-10T03:00:43.067Z,26.92
2023-05-10T03:01:43.098Z,29.79
2023-05-10T03:02:43.196Z,29.75
2023-05-10T03:03:43.090Z,31.56
2023-05-10T03:04:43.110Z,29.92
2023-05-10T03:05:43.097Z,31.62
2023-05-10T03:06:43.123Z,30.69
2023-05-10T03:07:43.134Z,29.04
2023-05-10T03:08:43.173Z,29.31
2023-05-10T03:09:43.152Z,28.87
2023-05-10T03:10:43.161Z,28.58
2023-05-10T03:11:43.168Z,28.80
2023-05-10T03:12:43.294Z,30.26
2023-05-10T03:13:43.193Z,28.57
2023-05-10T03:14:43.238Z,29.64
2023-05-10T03:15:43.366Z,30.28
2023-05-10T03:16:44.863Z,29.98
2023-05-10T03:17:43.333Z,30.45
2023-05-10T03:18:43.280Z,34.26
2023-05-10T03:19:43.268Z,33.37
2023-05-10T03:20:43.266Z,31.00
2023-05-10T03:21:43.286Z,31.09
2023-05-10T03:22:43.256Z,30.91
2023-05-10T03:23:43.252Z,31.22
2023-05-10T03:24:43.384Z,29.95
2023-05-10T03:25:43.232Z,29.16
2023-05-10T03:26:43.232Z,29.00
2023-05-10T03:27:43.218Z,30.01
2023-05-10T03:28:43.218Z,31.35
2023-05-10T03:29:43.212Z,30.01
2023-05-10T03:30:43.200Z,31.39
2023-05-10T03:31:43.331Z,30.64
2023-05-10T03:32:43.238Z,30.48
2023-05-10T03:33:43.183Z,28.25
2023-05-10T03:34:43.183Z,29.56
2023-05-10T03:35:43.218Z,31.74
2023-05-10T03:36:43.194Z,32.05
2023-05-10T03:37:43.185Z,31.45
2023-05-10T03:38:43.191Z,29.69
2023-05-10T03:39:43.166Z,31.53
2023-05-10T03:40:43.180Z,30.74
2023-05-10T03:41:43.140Z,30.78
2023-05-10T03:42:43.140Z,29.65
2023-05-10T03:43:43.140Z,31.40
2023-05-10T03:44:43.137Z,30.31
2023-05-10T03:45:43.125Z,30.06
2023-05-10T03:46:43.134Z,31.38
2023-05-10T03:47:43.145Z,31.62
2023-05-10T03:48:43.110Z,29.55
2023-05-10T03:49:43.102Z,31.50
2023-05-10T03:50:43.090Z,31.07
2023-05-10T03:51:43.079Z,31.02
2023-05-10T03:52:43.076Z,31.13
2023-05-10T03:53:43.094Z,30.27
2023-05-10T03:54:43.066Z,30.91
2023-05-10T03:55:43.065Z,31.31
2023-05-10T03:56:43.081Z,31.97
2023-05-10T03:57:43.065Z,30.54
2023-05-10T03:58:43.077Z,33.04
2023-05-10T03:59:43.045Z,31.30
2023-05-10T04:00:43.043Z,33.06
2023-05-10T04:01:43.057Z,30.57
2023-05-10T04:02:43.272Z,32.22
2023-05-10T04:03:43.165Z,30.69
2023-05-10T04:04:43.043Z,31.30
2023-05-10T04:05:43.018Z,31.65
2023-05-10T04:06:43.045Z,32.79
2023-05-10T04:07:43.010Z,32.93
2023-05-10T04:08:42.996Z,32.13
2023-05-10T04:09:42.999Z,32.51
2023-05-10T04:10:42.999Z,32.22
2023-05-10T04:11:43.016Z,31.71
2023-05-10T04:12:43.065Z,32.43
2023-05-10T04:13:42.992Z,32.69
2023-05-10T04:14:42.994Z,32.28
2023-05-10T04:15:43.016Z,31.12
2023-05-10T04:16:43.016Z,33.30
2023-05-10T04:17:43.084Z,31.76
2023-05-10T04:18:42.983Z,32.36
2023-05-10T04:19:42.981Z,32.79
2023-05-10T04:20:42.983Z,34.04
2023-05-10T04:21:42.980Z,32.46
2023-05-10T04:22:42.977Z,33.55
2023-05-10T04:23:42.955Z,30.93
2023-05-10T04:24:42.952Z,33.80
2023-05-10T04:25:42.951Z,31.21
2023-05-10T04:26:42.943Z,32.62
2023-05-10T04:27:42.938Z,32.58
2023-05-10T04:28:42.987Z,33.33
2023-05-10T04:29:42.995Z,33.58
2023-05-10T04:30:43.031Z,32.79
2023-05-10T04:31:43.046Z,33.92
2023-05-10T04:32:43.109Z,32.81
2023-05-10T04:33:43.129Z,32.56
2023-05-10T04:34:43.153Z,33.33
2023-05-10T04:35:43.182Z,33.98
2023-05-10T04:36:43.215Z,33.31
2023-05-10T04:37:43.239Z,33.86
2023-05-10T04:38:43.255Z,33.07
2023-05-10T04:39:43.294Z,31.69
2023-05-10T04:40:43.318Z,32.90
2023-05-10T04:41:43.340Z,34.04
2023-05-10T04:42:43.378Z,34.66
2023-05-10T04:43:43.420Z,34.93
2023-05-10T04:44:43.495Z,36.39
2023-05-10T04:45:43.511Z,35.68
2023-05-10T04:46:43.621Z,34.61
2023-05-10T04:47:43.602Z,32.81
2023-05-10T04:48:43.570Z,33.07
2023-05-10T04:49:43.593Z,33.22
2023-05-10T04:50:43.623Z,34.32
2023-05-10T04:51:43.668Z,33.72
2023-05-10T04:52:43.685Z,33.94
2023-05-10T04:53:46.609Z,34.15
2023-05-10T04:54:43.704Z,34.44
2023-05-10T04:55:43.702Z,35.09
2023-05-10T04:56:43.692Z,35.61
2023-05-10T04:57:43.685Z,35.49
2023-05-10T04:58:43.683Z,34.25
2023-05-10T04:59:43.707Z,35.01
2023-05-10T05:00:43.796Z,33.59
2023-05-10T05:01:43.748Z,34.19
2023-05-10T05:02:43.744Z,34.66
2023-05-10T05:03:43.801Z,33.51
2023-05-10T05:04:43.674Z,36.50
2023-05-10T05:05:43.669Z,34.51
2023-05-10T05:06:43.669Z,33.45
2023-05-10T05:07:43.663Z,33.50
2023-05-10T05:08:43.669Z,34.87
2023-05-10T05:09:43.669Z,35.43
2023-05-10T05:10:43.658Z,34.25
2023-05-10T05:11:43.664Z,35.19
2023-05-10T05:12:43.752Z,32.80
2023-05-10T05:13:43.673Z,32.23
2023-05-10T05:14:44.087Z,31.97
2023-05-10T05:15:43.667Z,31.00
2023-05-10T05:16:42.775Z,32.13
2023-05-10T05:17:43.681Z,33.23
2023-05-10T05:18:43.671Z,31.91
2023-05-10T05:19:44.084Z,32.35
2023-05-10T05:20:44.085Z,34.27
2023-05-10T05:21:45.092Z,34.14
2023-05-10T05:22:43.686Z,36.32
2023-05-10T05:23:43.690Z,35.13
2023-05-10T05:24:43.718Z,35.94
2023-05-10T05:25:44.110Z,32.84
2023-05-10T05:26:43.711Z,32.97
2023-05-10T05:27:43.754Z,31.77
2023-05-10T05:28:43.770Z,28.95
2023-05-10T05:29:43.792Z,28.44
2023-05-10T05:30:43.825Z,27.04
2023-05-10T05:31:43.924Z,27.95
2023-05-10T05:32:43.924Z,27.87
2023-05-10T05:33:43.953Z,29.47
2023-05-10T05:34:43.940Z,28.10
2023-05-10T05:35:43.996Z,28.62
2023-05-10T05:36:44.011Z,29.99
2023-05-10T05:37:44.150Z,30.93
2023-05-10T05:38:44.092Z,32.75
2023-05-10T05:39:44.112Z,34.97
2023-05-10T05:40:44.153Z,34.96
2023-05-10T05:41:44.181Z,32.39
2023-05-10T05:42:44.235Z,32.56
2023-05-10T05:43:44.251Z,31.06
2023-05-10T05:44:44.593Z,32.01
2023-05-10T05:45:44.451Z,30.60
2023-05-10T05:46:44.360Z,31.54
2023-05-10T05:47:44.486Z,31.52
2023-05-10T05:48:44.469Z,30.29
2023-05-10T05:49:47.814Z,29.54
2023-05-10T05:50:44.593Z,29.70
2023-05-10T05:51:44.466Z,29.91
2023-05-10T05:52:44.482Z,30.72
2023-05-10T05:53:44.499Z,33.82
2023-05-10T05:54:44.597Z,35.00
2023-05-10T05:55:45.513Z,38.12
2023-05-10T05:56:44.512Z,40.13
2023-05-10T05:57:44.594Z,39.24
2023-05-10T05:58:44.459Z,36.37
2023-05-10T05:59:44.597Z,35.82
2023-05-10T06:00:44.481Z,37.29
2023-05-10T06:01:44.507Z,37.75
2023-05-10T06:02:44.651Z,36.25
2023-05-10T06:03:44.654Z,37.81
2023-05-10T06:04:44.906Z,37.46
2023-05-10T06:05:44.433Z,36.99
2023-05-10T06:06:44.441Z,38.48
2023-05-10T06:07:44.594Z,38.84
2023-05-10T06:08:47.720Z,39.87
2023-05-10T06:09:44.515Z,39.93
2023-05-10T06:10:44.517Z,39.97
2023-05-10T06:11:44.512Z,40.21
2023-05-10T06:12:44.629Z,40.01
2023-05-10T06:13:44.501Z,41.79
2023-05-10T06:14:44.603Z,41.55
2023-05-10T06:15:44.496Z,42.07
2023-05-10T06:16:45.545Z,45.55
2023-05-10T06:17:44.510Z,47.69
2023-05-10T06:18:44.494Z,43.96
2023-05-10T06:19:44.486Z,41.85
2023-05-10T06:20:44.529Z,43.43
2023-05-10T06:21:44.455Z,40.92
2023-05-10T06:22:44.442Z,41.46
2023-05-10T06:23:44.431Z,42.34
2023-05-10T06:24:44.640Z,42.80
2023-05-10T06:25:44.418Z,45.97
2023-05-10T06:26:44.420Z,44.63
2023-05-10T06:27:47.089Z,41.63
2023-05-10T06:28:44.682Z,41.89
2023-05-10T06:29:45.135Z,42.05
2023-05-10T06:30:44.762Z,38.45
2023-05-10T06:31:44.898Z,39.54
2023-05-10T06:32:44.954Z,36.76
2023-05-10T06:33:44.933Z,36.75
2023-05-10T06:34:45.112Z,38.87
2023-05-10T06:35:44.965Z,35.30
2023-05-10T06:36:45.020Z,31.65
2023-05-10T06:37:45.040Z,33.34
2023-05-10T06:38:45.115Z,32.18
2023-05-10T06:39:45.092Z,32.00
2023-05-10T06:40:45.124Z,30.91
2023-05-10T06:41:45.170Z,33.12
2023-05-10T06:42:45.196Z,29.53
2023-05-10T06:43:45.612Z,28.16
2023-05-10T06:44:46.110Z,28.21
2023-05-10T06:45:45.341Z,28.02
2023-05-10T06:46:45.364Z,26.03
2023-05-10T06:47:45.535Z,26.73
2023-05-10T06:48:45.628Z,28.54
2023-05-10T06:49:45.450Z,29.58
2023-05-10T06:50:45.627Z,29.38
2023-05-10T06:51:45.524Z,28.38
2023-05-10T06:52:45.580Z,28.58
2023-05-10T06:53:45.606Z,25.45
2023-05-10T06:54:53.562Z,27.13
2023-05-10T06:55:45.648Z,27.33
2023-05-10T06:56:45.633Z,27.75
2023-05-10T06:57:45.625Z,26.76
2023-05-10T06:58:45.666Z,24.30
2023-05-10T06:59:46.131Z,26.07
2023-05-10T07:00:53.082Z,25.60
2023-05-10T07:01:45.665Z,25.85
2023-05-10T07:02:45.699Z,26.29
2023-05-10T07:03:45.627Z,21.96
2023-05-10T07:04:45.671Z,23.29
2023-05-10T07:05:45.581Z,19.64
2023-05-10T07:06:45.582Z,25.00
2023-05-10T07:07:45.573Z,27.57
2023-05-10T07:08:45.634Z,25.88
2023-05-10T07:09:45.621Z,29.58
2023-05-10T07:10:45.587Z,27.08
2023-05-10T07:11:45.552Z,29.41
2023-05-10T07:12:45.664Z,27.36
2023-05-10T07:13:45.556Z,27.62
2023-05-10T07:14:45.626Z,26.79
2023-05-10T07:15:45.557Z,28.63
2023-05-10T07:16:45.797Z,27.35
2023-05-10T07:17:46.038Z,25.68
2023-05-10T07:18:45.523Z,26.75
2023-05-10T07:19:45.530Z,25.76
2023-05-10T07:20:45.556Z,26.56
2023-05-10T07:21:45.513Z,29.39
2023-05-10T07:22:45.520Z,25.94
2023-05-10T07:23:45.516Z,27.21
2023-05-10T07:24:45.520Z,27.23
2023-05-10T07:25:45.493Z,25.59
2023-05-10T07:26:45.631Z,26.26
2023-05-10T07:27:45.476Z,26.14
2023-05-10T07:28:45.629Z,26.30
2023-05-10T07:29:45.466Z,25.13
2023-05-10T07:30:45.558Z,25.35
2023-05-10T07:31:45.679Z,25.97
2023-05-10T07:32:45.514Z,25.36
2023-05-10T07:33:45.450Z,28.14
2023-05-10T07:34:49.858Z,25.42
2023-05-10T07:35:45.457Z,25.63
2023-05-10T07:36:45.485Z,25.96
2023-05-10T07:37:48.675Z,24.69
2023-05-10T07:38:45.416Z,23.06
2023-05-10T07:39:45.665Z,18.68
2023-05-10T07:40:45.436Z,16.41
2023-05-10T07:41:45.434Z,13.19
2023-05-10T07:42:45.420Z,13.64
2023-05-10T07:43:45.425Z,25.94
2023-05-10T07:44:45.662Z,26.62
2023-05-10T07:45:45.484Z,25.46
2023-05-10T07:46:45.413Z,26.40
2023-05-10T07:47:45.478Z,34.97
2023-05-10T07:48:45.401Z,28.69
2023-05-10T07:49:45.929Z,28.11
2023-05-10T07:50:45.349Z,26.61
2023-05-10T07:51:45.420Z,27.04
2023-05-10T07:52:45.423Z,26.30
2023-05-10T07:53:45.345Z,26.80
2023-05-10T07:54:45.651Z,26.00
2023-05-10T07:55:45.349Z,28.79
2023-05-10T07:56:48.573Z,28.36
2023-05-10T07:57:45.882Z,28.53
2023-05-10T07:58:45.360Z,28.93
2023-05-10T07:59:45.641Z,29.25
2023-05-10T08:00:45.328Z,26.07
2023-05-10T08:01:45.678Z,24.85
2023-05-10T08:02:45.432Z,25.29
2023-05-10T08:03:45.409Z,30.78
2023-05-10T08:04:45.548Z,34.44
2023-05-10T08:05:45.340Z,34.73
2023-05-10T08:06:45.644Z,32.26
2023-05-10T08:07:45.408Z,31.37
2023-05-10T08:08:52.715Z,32.38
2023-05-10T08:09:45.677Z,32.71
2023-05-10T08:10:45.297Z,33.75
2023-05-10T08:11:45.305Z,33.59
2023-05-10T08:12:45.300Z,33.75
2023-05-10T08:13:45.284Z,31.39
2023-05-10T08:14:45.711Z,32.67
2023-05-10T08:15:45.287Z,30.49
2023-05-10T08:16:45.290Z,30.35
2023-05-10T08:17:45.307Z,30.88
2023-05-10T08:18:45.331Z,35.15
2023-05-10T08:19:45.910Z,30.76
2023-05-10T08:20:45.271Z,35.57
2023-05-10T08:21:45.280Z,32.90
2023-05-10T08:22:45.272Z,26.27
2023-05-10T08:23:45.381Z,27.25
2023-05-10T08:24:45.668Z,25.00
2023-05-10T08:25:45.290Z,26.44
2023-05-10T08:26:45.297Z,26.91
2023-05-10T08:27:45.281Z,30.53
2023-05-10T08:28:45.323Z,34.83
2023-05-10T08:29:50.082Z,36.32
2023-05-10T08:30:45.280Z,36.63
2023-05-10T08:31:45.392Z,37.13
2023-05-10T08:32:45.274Z,37.17
2023-05-10T08:33:45.298Z,36.82
2023-05-10T08:34:45.704Z,34.77
2023-05-10T08:35:45.280Z,29.79
2023-05-10T08:36:45.256Z,33.72
2023-05-10T08:37:45.269Z,31.31
2023-05-10T08:38:45.291Z,32.43
2023-05-10T08:39:45.853Z,32.64
2023-05-10T08:41:17.047Z,34.51
2023-05-10T08:41:45.674Z,34.74
2023-05-10T08:42:45.248Z,35.64
2023-05-10T08:43:45.278Z,35.91
2023-05-10T08:44:47.722Z,34.97
2023-05-10T08:45:45.721Z,34.66
2023-05-10T08:46:45.412Z,35.10
2023-05-10T08:47:45.302Z,36.05
2023-05-10T08:48:45.268Z,32.92
2023-05-10T08:49:45.661Z,35.51
2023-05-10T08:50:45.658Z,33.23
2023-05-10T08:51:45.280Z,34.07
2023-05-10T08:52:45.266Z,36.66
2023-05-10T08:53:45.306Z,37.60
2023-05-10T08:54:46.381Z,33.59
2023-05-10T08:55:45.286Z,29.39
2023-05-10T08:56:49.736Z,29.19
2023-05-10T08:57:45.464Z,29.39
2023-05-10T08:58:45.662Z,29.86
2023-05-10T08:59:45.499Z,30.46
2023-05-10T09:00:45.749Z,27.76
2023-05-10T09:01:46.192Z,31.46
2023-05-10T09:02:45.653Z,34.80
2023-05-10T09:03:45.671Z,34.37
2023-05-10T09:04:46.325Z,33.23
2023-05-10T09:05:45.758Z,30.39
2023-05-10T09:06:45.790Z,35.63
2023-05-10T09:07:45.860Z,38.29
2023-05-10T09:08:45.886Z,34.41
2023-05-10T09:09:45.931Z,32.70
2023-05-10T09:10:46.169Z,34.13
2023-05-10T09:11:46.029Z,32.34
2023-05-10T09:12:46.071Z,36.22
2023-05-10T09:13:46.108Z,36.63
2023-05-10T09:14:46.735Z,34.90
2023-05-10T09:15:46.664Z,38.38
2023-05-10T09:16:46.271Z,33.42
2023-05-10T09:17:46.752Z,31.56
2023-05-10T09:18:46.328Z,35.73
2023-05-10T09:19:46.345Z,38.05
2023-05-10T09:20:46.682Z,42.59
2023-05-10T09:21:47.518Z,44.99
2023-05-10T09:22:46.603Z,44.80
2023-05-10T09:23:48.232Z,40.92
2023-05-10T09:24:46.654Z,39.06
2023-05-10T09:25:46.687Z,41.06
2023-05-10T09:26:46.649Z,36.46
2023-05-10T09:27:46.649Z,39.27
2023-05-10T09:28:46.649Z,42.31
2023-05-10T09:29:46.688Z,45.67
2023-05-10T09:30:46.764Z,46.33
2023-05-10T09:31:46.647Z,42.99
2023-05-10T09:32:47.357Z,42.21
2023-05-10T09:33:46.656Z,44.10
2023-05-10T09:34:46.684Z,43.82
2023-05-10T09:35:46.698Z,44.49
2023-05-10T09:36:46.687Z,43.48
2023-05-10T09:37:46.685Z,42.31
2023-05-10T09:38:47.178Z,46.73
2023-05-10T09:39:46.685Z,45.21
2023-05-10T09:40:46.710Z,41.28
2023-05-10T09:41:46.701Z,40.28
2023-05-10T09:42:46.714Z,33.49
2023-05-10T09:43:46.682Z,32.59
2023-05-10T09:44:46.704Z,34.54
2023-05-10T09:45:47.218Z,34.23
2023-05-10T09:46:46.713Z,34.89
2023-05-10T09:47:46.753Z,35.65
2023-05-10T09:48:46.696Z,34.23
2023-05-10T09:49:46.679Z,28.53
2023-05-10T09:50:46.676Z,34.19
2023-05-10T09:51:46.693Z,39.22
2023-05-10T09:52:46.736Z,34.14
2023-05-10T09:53:47.188Z,34.65
2023-05-10T09:54:46.835Z,30.06
2023-05-10T09:55:50.072Z,25.98
2023-05-10T09:56:47.183Z,18.68
2023-05-10T09:57:46.859Z,26.01
2023-05-10T09:58:46.855Z,28.45
2023-05-10T09:59:46.882Z,28.65
2023-05-10T10:00:47.197Z,30.78
2023-05-10T10:01:50.102Z,25.31
2023-05-10T10:02:46.891Z,25.52
2023-05-10T10:03:46.880Z,26.05
2023-05-10T10:04:46.925Z,25.56
2023-05-10T10:05:47.188Z,26.08
2023-05-10T10:06:46.903Z,27.23
2023-05-10T10:07:46.910Z,25.26
2023-05-10T10:08:46.868Z,25.22
2023-05-10T10:09:47.192Z,25.00
2023-05-10T10:10:47.304Z,26.45
2023-05-10T10:11:46.872Z,25.00
2023-05-10T10:12:46.864Z,30.53
2023-05-10T10:13:46.865Z,30.42
2023-05-10T10:14:46.891Z,25.66
2023-05-10T10:15:47.294Z,25.00
2023-05-10T10:16:55.668Z,28.05
2023-05-10T10:17:46.893Z,28.42
2023-05-10T10:18:47.275Z,28.94
2023-05-10T10:19:46.842Z,29.17
2023-05-10T10:20:47.224Z,32.98
2023-05-10T10:21:46.866Z,29.96
2023-05-10T10:22:46.860Z,28.46
2023-05-10T10:23:46.846Z,28.43
2023-05-10T10:24:46.853Z,25.21
2023-05-10T10:25:47.197Z,28.97
2023-05-10T10:26:46.832Z,31.00
2023-05-10T10:27:46.827Z,29.36
2023-05-10T10:28:46.823Z,35.24
2023-05-10T10:29:47.539Z,32.85
2023-05-10T10:30:47.205Z,29.34
2023-05-10T10:31:46.931Z,29.23
2023-05-10T10:32:46.888Z,25.00
2023-05-10T10:33:48.415Z,25.77
2023-05-10T10:34:47.017Z,29.29
2023-05-10T10:35:47.203Z,30.79
2023-05-10T10:36:47.125Z,29.43
2023-05-10T10:37:47.091Z,29.94
2023-05-10T10:38:47.134Z,28.46
2023-05-10T10:39:47.201Z,34.34
2023-05-10T10:40:47.191Z,37.56
2023-05-10T10:41:47.706Z,35.66
2023-05-10T10:42:47.305Z,38.25
2023-05-10T10:43:47.289Z,36.23
2023-05-10T10:44:47.703Z,34.51
2023-05-10T10:45:47.366Z,33.65
2023-05-10T10:46:47.730Z,32.91
2023-05-10T10:47:47.454Z,30.47
2023-05-10T10:48:47.461Z,28.66
2023-05-10T10:49:47.509Z,30.21
2023-05-10T10:50:47.549Z,33.60
2023-05-10T10:51:47.715Z,34.43
2023-05-10T10:52:47.712Z,38.03
2023-05-10T10:53:47.677Z,38.33
2023-05-10T10:54:47.713Z,31.17
2023-05-10T10:55:47.757Z,29.90
2023-05-10T10:56:47.793Z,33.37
2023-05-10T10:57:48.210Z,36.66
2023-05-10T10:58:47.866Z,35.50
2023-05-10T10:59:47.914Z,40.07
2023-05-10T11:00:47.958Z,40.29
2023-05-10T11:01:48.039Z,36.55
2023-05-10T11:02:48.025Z,32.83
2023-05-10T11:03:47.967Z,37.52
2023-05-10T11:04:48.035Z,37.43
2023-05-10T11:05:47.967Z,36.71
2023-05-10T11:06:47.993Z,36.10
2023-05-10T11:07:47.992Z,33.04
2023-05-10T11:08:48.026Z,33.86
2023-05-10T11:09:48.017Z,36.84
2023-05-10T11:10:48.242Z,39.56
2023-05-10T11:11:48.044Z,43.79
2023-05-10T11:12:48.045Z,47.06
2023-05-10T11:13:50.201Z,50.99
2023-05-10T11:14:48.087Z,50.80
2023-05-10T11:15:48.744Z,48.61
2023-05-10T11:16:48.243Z,50.19
2023-05-10T11:17:48.101Z,46.42
2023-05-10T11:18:50.202Z,43.70
2023-05-10T11:19:48.223Z,47.89
2023-05-10T11:20:48.051Z,42.80
2023-05-10T11:21:48.043Z,43.81
2023-05-10T11:22:48.046Z,44.78
2023-05-10T11:23:48.057Z,46.95
2023-05-10T11:24:50.087Z,46.42
2023-05-10T11:25:48.032Z,46.48
2023-05-10T11:26:48.023Z,46.75
2023-05-10T11:27:48.022Z,43.94
2023-05-10T11:28:48.015Z,44.49
2023-05-10T11:29:48.006Z,37.69
2023-05-10T11:30:48.081Z,37.61
2023-05-10T11:31:48.059Z,32.99
2023-05-10T11:32:48.045Z,30.25
2023-05-10T11:33:47.980Z,28.22
2023-05-10T11:34:47.976Z,33.93
2023-05-10T11:35:47.978Z,36.00
2023-05-10T11:36:47.980Z,39.16
2023-05-10T11:37:47.983Z,38.36
2023-05-10T11:38:47.973Z,31.40
2023-05-10T11:39:47.970Z,25.15
2023-05-10T11:40:47.985Z,26.25
2023-05-10T11:41:48.230Z,25.79
2023-05-10T11:42:47.965Z,26.77
2023-05-10T11:43:47.949Z,25.00
2023-05-10T11:44:47.948Z,25.00
2023-05-10T11:45:47.954Z,28.27
2023-05-10T11:46:47.981Z,26.17
2023-05-10T11:47:47.967Z,25.71
2023-05-10T11:48:47.954Z,26.88
2023-05-10T11:49:47.928Z,29.00
2023-05-10T11:50:47.925Z,29.99
2023-05-10T11:51:47.925Z,30.60
2023-05-10T11:52:47.922Z,25.00
2023-05-10T11:53:47.919Z,25.66
2023-05-10T11:54:47.908Z,26.73
2023-05-10T11:55:47.913Z,31.81
2023-05-10T11:56:47.946Z,27.20
2023-05-10T11:57:47.902Z,25.95
2023-05-10T11:58:48.236Z,27.22
2023-05-10T11:59:47.873Z,32.51
2023-05-10T12:00:47.863Z,33.30
2023-05-10T12:01:48.238Z,29.12
2023-05-10T12:02:47.994Z,31.47
2023-05-10T12:03:48.002Z,28.86
2023-05-10T12:04:47.887Z,25.98
2023-05-10T12:05:47.850Z,25.00
2023-05-10T12:06:47.846Z,30.28
2023-05-10T12:07:47.815Z,29.93
2023-05-10T12:08:47.814Z,25.00
2023-05-10T12:09:47.805Z,25.76
2023-05-10T12:10:47.787Z,26.40
2023-05-10T12:11:48.740Z,26.30
2023-05-10T12:12:47.788Z,28.92
2023-05-10T12:13:47.752Z,32.10
2023-05-10T12:14:47.733Z,25.00
2023-05-10T12:15:47.725Z,25.54
2023-05-10T12:16:47.743Z,25.37
2023-05-10T12:17:47.809Z,34.45
2023-05-10T12:18:47.732Z,26.51
2023-05-10T12:19:47.679Z,29.51
2023-05-10T12:20:47.666Z,27.01
2023-05-10T12:21:47.655Z,38.09
2023-05-10T12:22:47.653Z,43.76
2023-05-10T12:23:47.638Z,46.90
2023-05-10T12:24:47.623Z,42.67
2023-05-10T12:25:47.619Z,43.81
2023-05-10T12:26:47.743Z,49.12
2023-05-10T12:27:47.611Z,49.30
2023-05-10T12:28:47.615Z,48.74
2023-05-10T12:29:47.582Z,43.00
2023-05-10T12:30:47.586Z,53.44
2023-05-10T12:31:47.609Z,52.21
2023-05-10T12:32:47.598Z,52.35
2023-05-10T12:33:47.563Z,48.93
2023-05-10T12:34:47.558Z,51.83
2023-05-10T12:35:47.598Z,50.36
2023-05-10T12:36:47.560Z,56.52
2023-05-10T12:37:47.561Z,54.86
2023-05-10T12:38:47.544Z,52.99
2023-05-10T12:39:47.527Z,48.86
2023-05-10T12:40:47.545Z,52.00
2023-05-10T12:41:47.532Z,62.36
2023-05-10T12:42:47.561Z,56.78
2023-05-10T12:43:47.766Z,53.24
2023-05-10T12:44:47.527Z,60.33
2023-05-10T12:45:47.541Z,60.87
2023-05-10T12:46:47.494Z,62.28
2023-05-10T12:47:47.488Z,60.87
2023-05-10T12:48:47.499Z,58.15
2023-05-10T12:49:47.465Z,63.52
2023-05-10T12:50:47.455Z,60.91
2023-05-10T12:51:47.452Z,67.56
2023-05-10T12:52:47.449Z,69.08